Terminal Aerodrome Forecast
Issued by NWS

Home | Current Version | Previous Version | Text Only | Print | Product List | Glossary On
Versions: 1 2 3 4 5 6 7 8 9 10 11 12 13 14 15
039
FTUS46 KHNX 101720
TAFVIS
TAF
KVIS 101720Z 1018/1118 VRB03KT P6SM SKC
     FM102100 31004KT P6SM SCT250
     FM110600 11002KT 4SM BR FEW250
     FM110900 00000KT 1 1/2SM BR SKC
     FM111600 VRB02KT 5SM BR SKC=

USA.gov is the U.S. government's official web portal to all federal, state and local government web resources and services.